sensor_id;sensor_type;location;lat;lon;timestamp;temperature;humidity
48666;DHT22;34452;50.796;4.994;2024-01-25T00:02:23;9.30;99.90
48666;DHT22;34452;50.796;4.994;2024-01-25T00:04:49;9.30;99.90
48666;DHT22;34452;50.796;4.994;2024-01-25T00:07:15;9.30;99.90
48666;DHT22;34452;50.796;4.994;2024-01-25T00:09:40;9.30;99.90
48666;DHT22;34452;50.796;4.994;2024-01-25T00:12:06;9.20;99.90
48666;DHT22;34452;50.796;4.994;2024-01-25T00:14:32;9.20;99.90
48666;DHT22;34452;50.796;4.994;2024-01-25T00:16:58;9.20;99.90
48666;DHT22;34452;50.796;4.994;2024-01-25T00:19:23;9.20;99.90
48666;DHT22;34452;50.796;4.994;2024-01-25T00:21:49;9.10;99.90
48666;DHT22;34452;50.796;4.994;2024-01-25T00:24:15;9.20;99.90
48666;DHT22;34452;50.796;4.994;2024-01-25T00:26:42;9.10;99.90
48666;DHT22;34452;50.796;4.994;2024-01-25T00:29:07;9.10;99.90
48666;DHT22;34452;50.796;4.994;2024-01-25T00:31:33;9.10;99.90
48666;DHT22;34452;50.796;4.994;2024-01-25T00:33:59;9.10;99.90
48666;DHT22;34452;50.796;4.994;2024-01-25T00:36:26;9.00;99.90
48666;DHT22;34452;50.796;4.994;2024-01-25T00:38:52;8.90;99.90
48666;DHT22;34452;50.796;4.994;2024-01-25T00:41:18;8.80;99.90
48666;DHT22;34452;50.796;4.994;2024-01-25T00:43:47;8.80;99.90
48666;DHT22;34452;50.796;4.994;2024-01-25T00:46:15;8.70;99.90
48666;DHT22;34452;50.796;4.994;2024-01-25T00:48:41;8.70;99.90
48666;DHT22;34452;50.796;4.994;2024-01-25T00:51:15;8.70;99.90
48666;DHT22;34452;50.796;4.994;2024-01-25T00:53:44;8.70;99.90
48666;DHT22;34452;50.796;4.994;2024-01-25T00:56:10;8.70;99.90
48666;DHT22;34452;50.796;4.994;2024-01-25T00:58:36;8.80;99.90
48666;DHT22;34452;50.796;4.994;2024-01-25T01:01:02;8.80;99.90
48666;DHT22;34452;50.796;4.994;2024-01-25T01:03:31;8.90;99.90
48666;DHT22;34452;50.796;4.994;2024-01-25T01:05:58;8.90;99.90
48666;DHT22;34452;50.796;4.994;2024-01-25T01:08:24;8.90;99.90
48666;DHT22;34452;50.796;4.994;2024-01-25T01:10:51;9.00;99.90
48666;DHT22;34452;50.796;4.994;2024-01-25T01:13:17;9.10;99.90
48666;DHT22;34452;50.796;4.994;2024-01-25T01:15:42;9.10;99.90
48666;DHT22;34452;50.796;4.994;2024-01-25T01:18:08;9.10;99.90
48666;DHT22;34452;50.796;4.994;2024-01-25T01:20:34;9.20;99.90
48666;DHT22;34452;50.796;4.994;2024-01-25T01:23:00;9.10;99.90
48666;DHT22;34452;50.796;4.994;2024-01-25T01:25:27;9.00;99.90
48666;DHT22;34452;50.796;4.994;2024-01-25T01:27:52;8.90;99.90
48666;DHT22;34452;50.796;4.994;2024-01-25T01:30:18;8.90;99.90
48666;DHT22;34452;50.796;4.994;2024-01-25T01:32:44;8.80;99.90
48666;DHT22;34452;50.796;4.994;2024-01-25T01:35:10;8.70;99.90
48666;DHT22;34452;50.796;4.994;2024-01-25T01:37:35;8.70;99.90
48666;DHT22;34452;50.796;4.994;2024-01-25T01:40:02;8.60;99.90
48666;DHT22;34452;50.796;4.994;2024-01-25T01:42:28;8.50;99.90
48666;DHT22;34452;50.796;4.994;2024-01-25T01:44:54;8.50;99.90
48666;DHT22;34452;50.796;4.994;2024-01-25T01:47:20;8.50;99.90
48666;DHT22;34452;50.796;4.994;2024-01-25T01:49:46;8.40;99.90
48666;DHT22;34452;50.796;4.994;2024-01-25T01:52:12;8.40;99.90
48666;DHT22;34452;50.796;4.994;2024-01-25T01:54:39;8.30;99.90
48666;DHT22;34452;50.796;4.994;2024-01-25T01:57:06;8.30;99.90
48666;DHT22;34452;50.796;4.994;2024-01-25T01:59:32;8.20;99.90
48666;DHT22;34452;50.796;4.994;2024-01-25T02:01:59;8.10;99.90
48666;DHT22;34452;50.796;4.994;2024-01-25T02:04:25;8.00;99.90
48666;DHT22;34452;50.796;4.994;2024-01-25T02:06:56;8.00;99.90
48666;DHT22;34452;50.796;4.994;2024-01-25T02:09:22;7.90;99.90
48666;DHT22;34452;50.796;4.994;2024-01-25T02:11:58;7.90;99.90
48666;DHT22;34452;50.796;4.994;2024-01-25T02:14:24;7.80;99.90
48666;DHT22;34452;50.796;4.994;2024-01-25T02:16:50;7.80;99.90
48666;DHT22;34452;50.796;4.994;2024-01-25T02:19:16;7.70;99.90
48666;DHT22;34452;50.796;4.994;2024-01-25T02:21:42;7.70;99.90
48666;DHT22;34452;50.796;4.994;2024-01-25T02:24:08;7.60;99.90
48666;DHT22;34452;50.796;4.994;2024-01-25T02:26:36;7.60;99.90
48666;DHT22;34452;50.796;4.994;2024-01-25T02:29:01;7.60;99.90
48666;DHT22;34452;50.796;4.994;2024-01-25T02:31:30;7.50;99.90
48666;DHT22;34452;50.796;4.994;2024-01-25T02:33:56;7.50;99.90
48666;DHT22;34452;50.796;4.994;2024-01-25T02:36:25;7.50;99.90
48666;DHT22;34452;50.796;4.994;2024-01-25T02:38:50;7.40;99.90
48666;DHT22;34452;50.796;4.994;2024-01-25T02:41:16;7.40;99.90
48666;DHT22;34452;50.796;4.994;2024-01-25T02:43:42;7.30;99.90
48666;DHT22;34452;50.796;4.994;2024-01-25T02:46:08;7.30;99.90
48666;DHT22;34452;50.796;4.994;2024-01-25T02:48:34;7.30;99.90
48666;DHT22;34452;50.796;4.994;2024-01-25T02:51:06;7.30;99.90
48666;DHT22;34452;50.796;4.994;2024-01-25T02:53:32;7.20;99.90
48666;DHT22;34452;50.796;4.994;2024-01-25T02:55:58;7.20;99.90
48666;DHT22;34452;50.796;4.994;2024-01-25T02:58:23;7.20;99.90
48666;DHT22;34452;50.796;4.994;2024-01-25T03:00:49;7.10;99.90
48666;DHT22;34452;50.796;4.994;2024-01-25T03:03:15;7.10;99.90
48666;DHT22;34452;50.796;4.994;2024-01-25T03:05:41;7.10;99.90
48666;DHT22;34452;50.796;4.994;2024-01-25T03:08:08;7.00;99.90
48666;DHT22;34452;50.796;4.994;2024-01-25T03:10:35;7.00;99.90
48666;DHT22;34452;50.796;4.994;2024-01-25T03:13:01;6.90;99.90
48666;DHT22;34452;50.796;4.994;2024-01-25T03:15:26;6.90;99.90
48666;DHT22;34452;50.796;4.994;2024-01-25T03:17:52;6.90;99.90
48666;DHT22;34452;50.796;4.994;2024-01-25T03:20:18;6.80;99.90
48666;DHT22;34452;50.796;4.994;2024-01-25T03:22:43;6.80;99.90
48666;DHT22;34452;50.796;4.994;2024-01-25T03:25:10;6.70;99.90
48666;DHT22;34452;50.796;4.994;2024-01-25T03:27:36;6.60;99.90
48666;DHT22;34452;50.796;4.994;2024-01-25T03:30:02;6.60;99.90
48666;DHT22;34452;50.796;4.994;2024-01-25T03:32:28;6.50;99.90
48666;DHT22;34452;50.796;4.994;2024-01-25T03:34:54;6.50;99.90
48666;DHT22;34452;50.796;4.994;2024-01-25T03:37:19;6.40;99.90
48666;DHT22;34452;50.796;4.994;2024-01-25T03:39:45;6.40;99.90
48666;DHT22;34452;50.796;4.994;2024-01-25T03:42:11;6.30;99.90
48666;DHT22;34452;50.796;4.994;2024-01-25T03:44:36;6.30;99.90
48666;DHT22;34452;50.796;4.994;2024-01-25T03:47:03;6.20;99.90
48666;DHT22;34452;50.796;4.994;2024-01-25T03:49:29;6.20;99.90
48666;DHT22;34452;50.796;4.994;2024-01-25T03:51:55;6.10;99.90
48666;DHT22;34452;50.796;4.994;2024-01-25T03:54:21;6.10;99.90
48666;DHT22;34452;50.796;4.994;2024-01-25T03:56:46;6.10;99.90
48666;DHT22;34452;50.796;4.994;2024-01-25T03:59:12;6.10;99.90
48666;DHT22;34452;50.796;4.994;2024-01-25T04:01:43;6.10;99.90
48666;DHT22;34452;50.796;4.994;2024-01-25T04:04:09;6.00;99.90
48666;DHT22;34452;50.796;4.994;2024-01-25T04:06:40;6.00;99.90
48666;DHT22;34452;50.796;4.994;2024-01-25T04:09:06;6.00;99.90
48666;DHT22;34452;50.796;4.994;2024-01-25T04:11:32;6.00;99.90
48666;DHT22;34452;50.796;4.994;2024-01-25T04:13:57;6.00;99.90
48666;DHT22;34452;50.796;4.994;2024-01-25T04:16:24;6.00;99.90
48666;DHT22;34452;50.796;4.994;2024-01-25T04:18:49;6.00;99.90
48666;DHT22;34452;50.796;4.994;2024-01-25T04:21:15;5.90;99.90
48666;DHT22;34452;50.796;4.994;2024-01-25T04:23:41;5.90;99.90
48666;DHT22;34452;50.796;4.994;2024-01-25T04:26:06;5.90;99.90
48666;DHT22;34452;50.796;4.994;2024-01-25T04:28:32;5.80;99.90
48666;DHT22;34452;50.796;4.994;2024-01-25T04:30:58;5.80;99.90
48666;DHT22;34452;50.796;4.994;2024-01-25T04:33:24;5.80;99.90
48666;DHT22;34452;50.796;4.994;2024-01-25T04:35:49;5.80;99.90
48666;DHT22;34452;50.796;4.994;2024-01-25T04:38:15;5.70;99.90
48666;DHT22;34452;50.796;4.994;2024-01-25T04:40:41;5.80;99.90
48666;DHT22;34452;50.796;4.994;2024-01-25T04:43:07;5.80;99.90
48666;DHT22;34452;50.796;4.994;2024-01-25T04:45:32;5.80;99.90
48666;DHT22;34452;50.796;4.994;2024-01-25T04:47:58;5.80;99.90
48666;DHT22;34452;50.796;4.994;2024-01-25T04:50:24;5.80;99.90
48666;DHT22;34452;50.796;4.994;2024-01-25T04:52:50;5.80;99.90
48666;DHT22;34452;50.796;4.994;2024-01-25T04:55:16;5.80;99.90
48666;DHT22;34452;50.796;4.994;2024-01-25T04:57:42;5.80;99.90
48666;DHT22;34452;50.796;4.994;2024-01-25T05:00:08;5.70;99.90
48666;DHT22;34452;50.796;4.994;2024-01-25T05:02:34;5.70;99.90
48666;DHT22;34452;50.796;4.994;2024-01-25T05:05:00;5.70;99.90
48666;DHT22;34452;50.796;4.994;2024-01-25T05:07:26;5.70;99.90
48666;DHT22;34452;50.796;4.994;2024-01-25T05:09:52;5.60;99.90
48666;DHT22;34452;50.796;4.994;2024-01-25T05:12:17;5.60;99.90
48666;DHT22;34452;50.796;4.994;2024-01-25T05:14:43;5.60;99.90
48666;DHT22;34452;50.796;4.994;2024-01-25T05:17:09;5.60;99.90
48666;DHT22;34452;50.796;4.994;2024-01-25T05:19:35;5.60;99.90
48666;DHT22;34452;50.796;4.994;2024-01-25T05:22:00;5.60;99.90
48666;DHT22;34452;50.796;4.994;2024-01-25T05:24:32;5.70;99.90
48666;DHT22;34452;50.796;4.994;2024-01-25T05:26:58;5.70;99.90
48666;DHT22;34452;50.796;4.994;2024-01-25T05:29:23;5.60;99.90
48666;DHT22;34452;50.796;4.994;2024-01-25T05:31:49;5.60;99.90
48666;DHT22;34452;50.796;4.994;2024-01-25T05:34:15;5.60;99.90
48666;DHT22;34452;50.796;4.994;2024-01-25T05:36:41;5.60;99.90
48666;DHT22;34452;50.796;4.994;2024-01-25T05:39:07;5.60;99.90
48666;DHT22;34452;50.796;4.994;2024-01-25T05:41:33;5.60;99.90
48666;DHT22;34452;50.796;4.994;2024-01-25T05:43:59;5.50;99.90
48666;DHT22;34452;50.796;4.994;2024-01-25T05:46:25;5.50;99.90
48666;DHT22;34452;50.796;4.994;2024-01-25T05:48:51;5.50;99.90
48666;DHT22;34452;50.796;4.994;2024-01-25T05:51:17;5.40;99.90
48666;DHT22;34452;50.796;4.994;2024-01-25T05:53:43;5.40;99.90
48666;DHT22;34452;50.796;4.994;2024-01-25T05:56:09;5.40;99.90
48666;DHT22;34452;50.796;4.994;2024-01-25T05:58:34;5.50;99.90
48666;DHT22;34452;50.796;4.994;2024-01-25T06:01:00;5.50;99.90
48666;DHT22;34452;50.796;4.994;2024-01-25T06:03:26;5.40;99.90
48666;DHT22;34452;50.796;4.994;2024-01-25T06:05:52;5.40;99.90
48666;DHT22;34452;50.796;4.994;2024-01-25T06:08:17;5.40;99.90
48666;DHT22;34452;50.796;4.994;2024-01-25T06:10:43;5.40;99.90
48666;DHT22;34452;50.796;4.994;2024-01-25T06:13:09;5.40;99.90
48666;DHT22;34452;50.796;4.994;2024-01-25T06:15:35;5.40;99.90
48666;DHT22;34452;50.796;4.994;2024-01-25T06:18:00;5.40;99.90
48666;DHT22;34452;50.796;4.994;2024-01-25T06:20:26;5.40;99.90
48666;DHT22;34452;50.796;4.994;2024-01-25T06:22:52;5.40;99.90
48666;DHT22;34452;50.796;4.994;2024-01-25T06:25:18;5.40;99.90
48666;DHT22;34452;50.796;4.994;2024-01-25T06:27:43;5.50;99.90
48666;DHT22;34452;50.796;4.994;2024-01-25T06:30:09;5.50;99.90
48666;DHT22;34452;50.796;4.994;2024-01-25T06:32:36;5.50;99.90
48666;DHT22;34452;50.796;4.994;2024-01-25T06:35:03;5.50;99.90
48666;DHT22;34452;50.796;4.994;2024-01-25T06:37:29;5.50;99.90
48666;DHT22;34452;50.796;4.994;2024-01-25T06:39:55;5.50;99.90
48666;DHT22;34452;50.796;4.994;2024-01-25T06:42:21;5.50;99.90
48666;DHT22;34452;50.796;4.994;2024-01-25T06:44:47;5.60;99.90
48666;DHT22;34452;50.796;4.994;2024-01-25T06:47:13;5.60;99.90
48666;DHT22;34452;50.796;4.994;2024-01-25T06:49:39;5.60;99.90
48666;DHT22;34452;50.796;4.994;2024-01-25T06:52:05;5.60;99.90
48666;DHT22;34452;50.796;4.994;2024-01-25T06:54:30;5.60;99.90
48666;DHT22;34452;50.796;4.994;2024-01-25T06:56:57;5.60;99.90
48666;DHT22;34452;50.796;4.994;2024-01-25T06:59:23;5.60;99.90
48666;DHT22;34452;50.796;4.994;2024-01-25T07:01:50;5.60;99.90
48666;DHT22;34452;50.796;4.994;2024-01-25T07:04:15;5.60;99.90
48666;DHT22;34452;50.796;4.994;2024-01-25T07:06:41;5.70;99.90
48666;DHT22;34452;50.796;4.994;2024-01-25T07:09:07;5.70;99.90
48666;DHT22;34452;50.796;4.994;2024-01-25T07:11:33;5.70;99.90
48666;DHT22;34452;50.796;4.994;2024-01-25T07:13:59;5.70;99.90
48666;DHT22;34452;50.796;4.994;2024-01-25T07:16:25;5.70;99.90
48666;DHT22;34452;50.796;4.994;2024-01-25T07:18:51;5.70;99.90
48666;DHT22;34452;50.796;4.994;2024-01-25T07:21:17;5.70;99.90
48666;DHT22;34452;50.796;4.994;2024-01-25T07:23:43;5.80;99.90
48666;DHT22;34452;50.796;4.994;2024-01-25T07:26:08;5.80;99.90
48666;DHT22;34452;50.796;4.994;2024-01-25T07:28:34;5.80;99.90
48666;DHT22;34452;50.796;4.994;2024-01-25T07:31:00;5.80;99.90
48666;DHT22;34452;50.796;4.994;2024-01-25T07:33:25;5.80;99.90
48666;DHT22;34452;50.796;4.994;2024-01-25T07:35:51;5.70;99.90
48666;DHT22;34452;50.796;4.994;2024-01-25T07:38:17;5.70;99.90
48666;DHT22;34452;50.796;4.994;2024-01-25T07:40:43;5.60;99.90
48666;DHT22;34452;50.796;4.994;2024-01-25T07:43:09;5.60;99.90
48666;DHT22;34452;50.796;4.994;2024-01-25T07:45:37;5.60;99.90
48666;DHT22;34452;50.796;4.994;2024-01-25T07:48:05;5.60;99.90
48666;DHT22;34452;50.796;4.994;2024-01-25T07:50:31;5.70;99.90
48666;DHT22;34452;50.796;4.994;2024-01-25T07:52:58;5.70;99.90
48666;DHT22;34452;50.796;4.994;2024-01-25T07:55:26;5.70;99.90
48666;DHT22;34452;50.796;4.994;2024-01-25T07:57:52;5.80;99.90
48666;DHT22;34452;50.796;4.994;2024-01-25T08:00:18;5.80;99.90
48666;DHT22;34452;50.796;4.994;2024-01-25T08:02:44;5.90;99.90
48666;DHT22;34452;50.796;4.994;2024-01-25T08:05:10;5.90;99.90
48666;DHT22;34452;50.796;4.994;2024-01-25T08:07:37;6.00;99.90
48666;DHT22;34452;50.796;4.994;2024-01-25T08:10:06;6.00;99.90
48666;DHT22;34452;50.796;4.994;2024-01-25T08:12:32;6.10;99.90
48666;DHT22;34452;50.796;4.994;2024-01-25T08:14:57;6.20;99.90
48666;DHT22;34452;50.796;4.994;2024-01-25T08:17:23;6.30;99.90
48666;DHT22;34452;50.796;4.994;2024-01-25T08:19:49;6.30;99.90
48666;DHT22;34452;50.796;4.994;2024-01-25T08:22:15;6.40;99.90
48666;DHT22;34452;50.796;4.994;2024-01-25T08:24:40;6.40;99.90
48666;DHT22;34452;50.796;4.994;2024-01-25T08:27:06;6.50;99.90
48666;DHT22;34452;50.796;4.994;2024-01-25T08:29:34;6.60;99.90
48666;DHT22;34452;50.796;4.994;2024-01-25T08:32:02;6.70;99.90
48666;DHT22;34452;50.796;4.994;2024-01-25T08:34:28;6.70;99.90
48666;DHT22;34452;50.796;4.994;2024-01-25T08:36:54;6.80;99.90
48666;DHT22;34452;50.796;4.994;2024-01-25T08:39:20;6.90;99.90
48666;DHT22;34452;50.796;4.994;2024-01-25T08:41:46;6.90;99.90
48666;DHT22;34452;50.796;4.994;2024-01-25T08:44:14;7.00;99.90
48666;DHT22;34452;50.796;4.994;2024-01-25T08:46:40;7.00;99.90
48666;DHT22;34452;50.796;4.994;2024-01-25T08:49:08;7.10;99.90
48666;DHT22;34452;50.796;4.994;2024-01-25T08:51:35;7.10;99.90
48666;DHT22;34452;50.796;4.994;2024-01-25T08:54:01;7.20;99.90
48666;DHT22;34452;50.796;4.994;2024-01-25T08:56:29;7.30;99.90
48666;DHT22;34452;50.796;4.994;2024-01-25T08:58:55;7.40;99.90
48666;DHT22;34452;50.796;4.994;2024-01-25T09:01:20;7.40;99.90
48666;DHT22;34452;50.796;4.994;2024-01-25T09:03:47;7.50;99.90
48666;DHT22;34452;50.796;4.994;2024-01-25T09:06:12;7.60;99.90
48666;DHT22;34452;50.796;4.994;2024-01-25T09:08:40;7.70;99.90
48666;DHT22;34452;50.796;4.994;2024-01-25T09:11:06;7.70;99.90
48666;DHT22;34452;50.796;4.994;2024-01-25T09:13:31;7.70;99.90
48666;DHT22;34452;50.796;4.994;2024-01-25T09:15:57;7.70;99.90
48666;DHT22;34452;50.796;4.994;2024-01-25T09:18:24;7.80;99.90
48666;DHT22;34452;50.796;4.994;2024-01-25T09:20:49;7.90;99.90
48666;DHT22;34452;50.796;4.994;2024-01-25T09:23:15;7.90;99.90
48666;DHT22;34452;50.796;4.994;2024-01-25T09:25:45;8.00;99.90
48666;DHT22;34452;50.796;4.994;2024-01-25T09:28:10;8.10;99.90
48666;DHT22;34452;50.796;4.994;2024-01-25T09:30:40;8.10;99.90
48666;DHT22;34452;50.796;4.994;2024-01-25T09:33:09;8.20;99.90
48666;DHT22;34452;50.796;4.994;2024-01-25T09:35:34;8.30;99.90
48666;DHT22;34452;50.796;4.994;2024-01-25T09:38:00;8.30;99.90
48666;DHT22;34452;50.796;4.994;2024-01-25T09:40:26;8.30;99.90
48666;DHT22;34452;50.796;4.994;2024-01-25T09:42:53;8.40;99.90
48666;DHT22;34452;50.796;4.994;2024-01-25T09:45:19;8.50;99.90
48666;DHT22;34452;50.796;4.994;2024-01-25T09:47:45;8.50;99.90
48666;DHT22;34452;50.796;4.994;2024-01-25T09:50:11;8.50;99.90
48666;DHT22;34452;50.796;4.994;2024-01-25T09:52:44;8.60;99.90
48666;DHT22;34452;50.796;4.994;2024-01-25T09:55:12;8.60;99.90
48666;DHT22;34452;50.796;4.994;2024-01-25T09:57:41;8.60;99.90
48666;DHT22;34452;50.796;4.994;2024-01-25T10:00:09;8.70;99.90
48666;DHT22;34452;50.796;4.994;2024-01-25T10:02:38;8.70;99.90
48666;DHT22;34452;50.796;4.994;2024-01-25T10:05:04;8.80;99.90
48666;DHT22;34452;50.796;4.994;2024-01-25T10:07:40;8.90;99.90
48666;DHT22;34452;50.796;4.994;2024-01-25T10:10:07;8.90;99.90
48666;DHT22;34452;50.796;4.994;2024-01-25T10:12:32;8.90;99.90
48666;DHT22;34452;50.796;4.994;2024-01-25T10:14:59;9.00;99.90
48666;DHT22;34452;50.796;4.994;2024-01-25T10:17:25;9.00;99.90
48666;DHT22;34452;50.796;4.994;2024-01-25T10:19:51;9.00;99.90
48666;DHT22;34452;50.796;4.994;2024-01-25T10:22:17;9.00;99.90
48666;DHT22;34452;50.796;4.994;2024-01-25T10:24:43;9.10;99.90
48666;DHT22;34452;50.796;4.994;2024-01-25T10:27:09;9.20;99.90
48666;DHT22;34452;50.796;4.994;2024-01-25T10:29:35;9.30;99.90
48666;DHT22;34452;50.796;4.994;2024-01-25T10:32:02;9.30;99.90
48666;DHT22;34452;50.796;4.994;2024-01-25T10:34:29;9.40;99.90
48666;DHT22;34452;50.796;4.994;2024-01-25T10:36:55;9.50;99.90
48666;DHT22;34452;50.796;4.994;2024-01-25T10:39:21;9.70;99.90
48666;DHT22;34452;50.796;4.994;2024-01-25T10:41:47;9.70;99.90
48666;DHT22;34452;50.796;4.994;2024-01-25T10:44:19;9.70;99.90
48666;DHT22;34452;50.796;4.994;2024-01-25T10:46:48;9.90;99.90
48666;DHT22;34452;50.796;4.994;2024-01-25T10:49:14;9.80;99.90
48666;DHT22;34452;50.796;4.994;2024-01-25T10:51:41;9.90;99.90
48666;DHT22;34452;50.796;4.994;2024-01-25T10:54:08;9.90;99.90
48666;DHT22;34452;50.796;4.994;2024-01-25T10:56:46;10.00;99.90
48666;DHT22;34452;50.796;4.994;2024-01-25T10:59:13;10.10;99.90
48666;DHT22;34452;50.796;4.994;2024-01-25T11:01:46;10.20;99.90
48666;DHT22;34452;50.796;4.994;2024-01-25T11:04:18;10.30;99.90
48666;DHT22;34452;50.796;4.994;2024-01-25T11:06:47;10.30;99.90
48666;DHT22;34452;50.796;4.994;2024-01-25T11:09:18;10.40;99.90
48666;DHT22;34452;50.796;4.994;2024-01-25T11:11:47;10.50;99.90
48666;DHT22;34452;50.796;4.994;2024-01-25T11:14:16;10.60;99.90
48666;DHT22;34452;50.796;4.994;2024-01-25T11:16:44;10.70;99.90
48666;DHT22;34452;50.796;4.994;2024-01-25T11:19:17;10.80;99.90
48666;DHT22;34452;50.796;4.994;2024-01-25T11:21:53;10.80;99.90
48666;DHT22;34452;50.796;4.994;2024-01-25T11:24:23;10.90;99.90
48666;DHT22;34452;50.796;4.994;2024-01-25T11:26:54;10.90;99.90
48666;DHT22;34452;50.796;4.994;2024-01-25T11:29:21;10.90;99.90
48666;DHT22;34452;50.796;4.994;2024-01-25T11:31:49;10.90;99.90
48666;DHT22;34452;50.796;4.994;2024-01-25T11:34:16;10.90;99.90
48666;DHT22;34452;50.796;4.994;2024-01-25T11:36:43;10.90;99.90
48666;DHT22;34452;50.796;4.994;2024-01-25T11:39:10;10.90;99.90
48666;DHT22;34452;50.796;4.994;2024-01-25T11:41:37;10.90;99.90
48666;DHT22;34452;50.796;4.994;2024-01-25T11:44:03;10.90;99.90
48666;DHT22;34452;50.796;4.994;2024-01-25T11:46:30;10.90;99.90
48666;DHT22;34452;50.796;4.994;2024-01-25T11:48:57;11.00;99.90
48666;DHT22;34452;50.796;4.994;2024-01-25T11:51:23;11.00;99.90
48666;DHT22;34452;50.796;4.994;2024-01-25T11:53:48;11.10;99.90
48666;DHT22;34452;50.796;4.994;2024-01-25T11:56:18;11.10;99.90
48666;DHT22;34452;50.796;4.994;2024-01-25T11:58:45;11.10;99.90
48666;DHT22;34452;50.796;4.994;2024-01-25T12:01:13;11.10;99.90
48666;DHT22;34452;50.796;4.994;2024-01-25T12:03:40;11.10;99.90
48666;DHT22;34452;50.796;4.994;2024-01-25T12:06:06;11.10;99.90
48666;DHT22;34452;50.796;4.994;2024-01-25T12:08:35;11.10;99.90
48666;DHT22;34452;50.796;4.994;2024-01-25T12:11:09;11.10;99.90
48666;DHT22;34452;50.796;4.994;2024-01-25T12:13:39;11.10;99.90
48666;DHT22;34452;50.796;4.994;2024-01-25T12:16:06;11.10;99.90
48666;DHT22;34452;50.796;4.994;2024-01-25T12:18:33;11.00;99.90
48666;DHT22;34452;50.796;4.994;2024-01-25T12:21:01;11.00;99.90
48666;DHT22;34452;50.796;4.994;2024-01-25T12:23:38;11.00;99.90
48666;DHT22;34452;50.796;4.994;2024-01-25T12:26:07;11.00;99.90
48666;DHT22;34452;50.796;4.994;2024-01-25T12:28:34;10.90;99.90
48666;DHT22;34452;50.796;4.994;2024-01-25T12:31:00;10.80;99.90
48666;DHT22;34452;50.796;4.994;2024-01-25T12:33:27;10.80;99.90
48666;DHT22;34452;50.796;4.994;2024-01-25T12:35:53;10.80;99.90
48666;DHT22;34452;50.796;4.994;2024-01-25T12:38:25;10.80;99.90
48666;DHT22;34452;50.796;4.994;2024-01-25T12:40:52;10.80;99.90
48666;DHT22;34452;50.796;4.994;2024-01-25T12:43:18;10.80;99.90
48666;DHT22;34452;50.796;4.994;2024-01-25T12:45:46;10.80;99.90
48666;DHT22;34452;50.796;4.994;2024-01-25T12:48:12;10.70;99.90
48666;DHT22;34452;50.796;4.994;2024-01-25T12:50:38;10.70;99.90
48666;DHT22;34452;50.796;4.994;2024-01-25T12:53:04;10.80;99.90
48666;DHT22;34452;50.796;4.994;2024-01-25T12:55:31;10.70;99.90
48666;DHT22;34452;50.796;4.994;2024-01-25T12:57:57;10.80;99.90
48666;DHT22;34452;50.796;4.994;2024-01-25T13:00:23;10.90;99.90
48666;DHT22;34452;50.796;4.994;2024-01-25T13:02:50;10.90;99.90
48666;DHT22;34452;50.796;4.994;2024-01-25T13:05:16;11.00;99.90
48666;DHT22;34452;50.796;4.994;2024-01-25T13:07:42;11.10;99.90
48666;DHT22;34452;50.796;4.994;2024-01-25T13:10:11;11.00;99.90
48666;DHT22;34452;50.796;4.994;2024-01-25T13:12:37;11.00;99.90
48666;DHT22;34452;50.796;4.994;2024-01-25T13:15:03;11.00;99.90
48666;DHT22;34452;50.796;4.994;2024-01-25T13:17:29;10.90;99.90
48666;DHT22;34452;50.796;4.994;2024-01-25T13:19:57;10.90;99.90
48666;DHT22;34452;50.796;4.994;2024-01-25T13:22:23;10.90;99.90
48666;DHT22;34452;50.796;4.994;2024-01-25T13:24:50;10.90;99.90
48666;DHT22;34452;50.796;4.994;2024-01-25T13:27:16;10.90;99.90
48666;DHT22;34452;50.796;4.994;2024-01-25T13:29:42;11.00;99.90
48666;DHT22;34452;50.796;4.994;2024-01-25T13:32:08;10.90;99.90
48666;DHT22;34452;50.796;4.994;2024-01-25T13:34:34;10.90;99.90
48666;DHT22;34452;50.796;4.994;2024-01-25T13:37:00;10.90;99.90
48666;DHT22;34452;50.796;4.994;2024-01-25T13:39:25;10.90;99.90
48666;DHT22;34452;50.796;4.994;2024-01-25T13:41:51;11.00;99.90
48666;DHT22;34452;50.796;4.994;2024-01-25T13:44:17;11.00;99.90
48666;DHT22;34452;50.796;4.994;2024-01-25T13:46:43;11.00;99.90
48666;DHT22;34452;50.796;4.994;2024-01-25T13:49:08;11.10;99.90
48666;DHT22;34452;50.796;4.994;2024-01-25T13:51:34;11.10;99.90
48666;DHT22;34452;50.796;4.994;2024-01-25T13:54:00;11.10;99.90
48666;DHT22;34452;50.796;4.994;2024-01-25T13:56:26;11.10;99.90
48666;DHT22;34452;50.796;4.994;2024-01-25T13:58:52;11.10;99.90
48666;DHT22;34452;50.796;4.994;2024-01-25T14:01:19;11.00;99.90
48666;DHT22;34452;50.796;4.994;2024-01-25T14:03:44;11.00;99.90
48666;DHT22;34452;50.796;4.994;2024-01-25T14:06:10;11.00;99.90
48666;DHT22;34452;50.796;4.994;2024-01-25T14:08:36;11.00;99.90
48666;DHT22;34452;50.796;4.994;2024-01-25T14:11:03;11.00;99.90
48666;DHT22;34452;50.796;4.994;2024-01-25T14:13:29;11.00;99.90
48666;DHT22;34452;50.796;4.994;2024-01-25T14:15:55;11.00;99.90
48666;DHT22;34452;50.796;4.994;2024-01-25T14:18:21;11.00;99.90
48666;DHT22;34452;50.796;4.994;2024-01-25T14:20:46;11.00;99.90
48666;DHT22;34452;50.796;4.994;2024-01-25T14:23:12;11.00;99.90
48666;DHT22;34452;50.796;4.994;2024-01-25T14:25:38;11.00;99.90
48666;DHT22;34452;50.796;4.994;2024-01-25T14:28:03;11.00;99.90
48666;DHT22;34452;50.796;4.994;2024-01-25T14:30:29;11.00;99.90
48666;DHT22;34452;50.796;4.994;2024-01-25T14:32:55;11.00;99.90
48666;DHT22;34452;50.796;4.994;2024-01-25T14:35:22;11.00;99.90
48666;DHT22;34452;50.796;4.994;2024-01-25T14:37:56;11.00;99.90
48666;DHT22;34452;50.796;4.994;2024-01-25T14:40:22;11.00;99.90
48666;DHT22;34452;50.796;4.994;2024-01-25T14:42:48;11.00;99.90
48666;DHT22;34452;50.796;4.994;2024-01-25T14:45:14;11.00;99.90
48666;DHT22;34452;50.796;4.994;2024-01-25T14:47:40;11.10;99.90
48666;DHT22;34452;50.796;4.994;2024-01-25T14:50:06;11.10;99.90
48666;DHT22;34452;50.796;4.994;2024-01-25T14:52:32;11.10;99.90
48666;DHT22;34452;50.796;4.994;2024-01-25T14:55:00;11.10;99.90
48666;DHT22;34452;50.796;4.994;2024-01-25T14:57:26;11.10;99.90
48666;DHT22;34452;50.796;4.994;2024-01-25T14:59:52;11.00;99.90
48666;DHT22;34452;50.796;4.994;2024-01-25T15:02:18;11.10;99.90
48666;DHT22;34452;50.796;4.994;2024-01-25T15:04:44;11.10;99.90
48666;DHT22;34452;50.796;4.994;2024-01-25T15:07:09;11.10;99.90
48666;DHT22;34452;50.796;4.994;2024-01-25T15:09:35;11.10;99.90
48666;DHT22;34452;50.796;4.994;2024-01-25T15:12:01;11.10;99.90
48666;DHT22;34452;50.796;4.994;2024-01-25T15:14:27;11.10;99.90
48666;DHT22;34452;50.796;4.994;2024-01-25T15:16:53;11.10;99.90
48666;DHT22;34452;50.796;4.994;2024-01-25T15:19:20;11.10;99.90
48666;DHT22;34452;50.796;4.994;2024-01-25T15:21:46;11.10;99.90
48666;DHT22;34452;50.796;4.994;2024-01-25T15:24:12;11.10;99.90
48666;DHT22;34452;50.796;4.994;2024-01-25T15:26:41;11.10;99.90
48666;DHT22;34452;50.796;4.994;2024-01-25T15:29:06;11.00;99.90
48666;DHT22;34452;50.796;4.994;2024-01-25T15:31:32;11.00;99.90
48666;DHT22;34452;50.796;4.994;2024-01-25T15:33:58;11.00;99.90
48666;DHT22;34452;50.796;4.994;2024-01-25T15:36:23;10.90;99.90
48666;DHT22;34452;50.796;4.994;2024-01-25T15:38:49;10.90;99.90